sensor_id;sensor_type;location;lat;lon;timestamp;P1;durP1;ratioP1;P2;durP2;ratioP2
66272;SDS011;58450;52.150;4.466;2024-01-11T00:01:52;17.10;;;7.90;;
66272;SDS011;58450;52.150;4.466;2024-01-11T00:04:20;16.55;;;8.05;;
66272;SDS011;58450;52.150;4.466;2024-01-11T00:06:47;17.95;;;8.52;;
66272;SDS011;58450;52.150;4.466;2024-01-11T00:09:14;17.13;;;7.82;;
66272;SDS011;58450;52.150;4.466;2024-01-11T00:11:41;17.92;;;8.77;;
66272;SDS011;58450;52.150;4.466;2024-01-11T00:14:07;17.17;;;8.10;;
66272;SDS011;58450;52.150;4.466;2024-01-11T00:16:34;15.88;;;7.90;;
66272;SDS011;58450;52.150;4.466;2024-01-11T00:19:01;17.60;;;8.35;;
66272;SDS011;58450;52.150;4.466;2024-01-11T00:21:29;16.60;;;8.15;;
66272;SDS011;58450;52.150;4.466;2024-01-11T00:23:55;18.08;;;8.68;;
66272;SDS011;58450;52.150;4.466;2024-01-11T00:26:22;18.80;;;8.57;;
66272;SDS011;58450;52.150;4.466;2024-01-11T00:28:49;18.08;;;8.48;;
66272;SDS011;58450;52.150;4.466;2024-01-11T00:31:16;18.63;;;8.98;;
66272;SDS011;58450;52.150;4.466;2024-01-11T00:33:42;18.55;;;8.15;;
66272;SDS011;58450;52.150;4.466;2024-01-11T00:36:09;17.33;;;8.05;;
66272;SDS011;58450;52.150;4.466;2024-01-11T00:38:37;18.13;;;8.73;;
66272;SDS011;58450;52.150;4.466;2024-01-11T00:41:04;20.85;;;8.00;;
66272;SDS011;58450;52.150;4.466;2024-01-11T00:43:31;18.30;;;8.95;;
66272;SDS011;58450;52.150;4.466;2024-01-11T00:45:58;17.60;;;9.02;;
66272;SDS011;58450;52.150;4.466;2024-01-11T00:48:25;18.48;;;8.98;;
66272;SDS011;58450;52.150;4.466;2024-01-11T00:50:51;19.45;;;9.23;;
66272;SDS011;58450;52.150;4.466;2024-01-11T00:53:18;17.77;;;8.68;;
66272;SDS011;58450;52.150;4.466;2024-01-11T00:55:46;18.33;;;8.98;;
66272;SDS011;58450;52.150;4.466;2024-01-11T00:58:13;18.40;;;8.82;;
66272;SDS011;58450;52.150;4.466;2024-01-11T01:00:40;20.95;;;9.07;;
66272;SDS011;58450;52.150;4.466;2024-01-11T01:03:06;19.63;;;9.05;;
66272;SDS011;58450;52.150;4.466;2024-01-11T01:05:33;19.25;;;9.23;;
66272;SDS011;58450;52.150;4.466;2024-01-11T01:08:00;17.58;;;8.07;;
66272;SDS011;58450;52.150;4.466;2024-01-11T01:10:27;18.08;;;8.43;;
66272;SDS011;58450;52.150;4.466;2024-01-11T01:12:55;17.52;;;8.93;;
66272;SDS011;58450;52.150;4.466;2024-01-11T01:15:22;20.80;;;9.30;;
66272;SDS011;58450;52.150;4.466;2024-01-11T01:17:48;20.48;;;8.80;;
66272;SDS011;58450;52.150;4.466;2024-01-11T01:20:15;19.23;;;9.07;;
66272;SDS011;58450;52.150;4.466;2024-01-11T01:22:42;19.08;;;9.35;;
66272;SDS011;58450;52.150;4.466;2024-01-11T01:25:09;20.05;;;9.23;;
66272;SDS011;58450;52.150;4.466;2024-01-11T01:27:35;20.58;;;9.70;;
66272;SDS011;58450;52.150;4.466;2024-01-11T01:30:04;23.50;;;9.55;;
66272;SDS011;58450;52.150;4.466;2024-01-11T01:32:32;19.17;;;8.73;;
66272;SDS011;58450;52.150;4.466;2024-01-11T01:35:00;18.90;;;8.95;;
66272;SDS011;58450;52.150;4.466;2024-01-11T01:37:26;19.70;;;9.02;;
66272;SDS011;58450;52.150;4.466;2024-01-11T01:39:53;18.95;;;9.18;;
66272;SDS011;58450;52.150;4.466;2024-01-11T01:42:20;19.17;;;8.95;;
66272;SDS011;58450;52.150;4.466;2024-01-11T01:44:47;19.02;;;9.05;;
66272;SDS011;58450;52.150;4.466;2024-01-11T01:47:15;22.85;;;9.85;;
66272;SDS011;58450;52.150;4.466;2024-01-11T01:49:42;24.05;;;9.85;;
66272;SDS011;58450;52.150;4.466;2024-01-11T01:52:09;21.10;;;10.00;;
66272;SDS011;58450;52.150;4.466;2024-01-11T01:54:37;19.83;;;9.40;;
66272;SDS011;58450;52.150;4.466;2024-01-11T01:57:04;20.67;;;10.05;;
66272;SDS011;58450;52.150;4.466;2024-01-11T01:59:31;22.13;;;10.02;;
66272;SDS011;58450;52.150;4.466;2024-01-11T02:01:58;21.88;;;9.60;;
66272;SDS011;58450;52.150;4.466;2024-01-11T02:04:26;20.05;;;9.75;;
66272;SDS011;58450;52.150;4.466;2024-01-11T02:06:53;21.85;;;9.75;;
66272;SDS011;58450;52.150;4.466;2024-01-11T02:09:20;20.17;;;9.77;;
66272;SDS011;58450;52.150;4.466;2024-01-11T02:11:47;20.40;;;8.98;;
66272;SDS011;58450;52.150;4.466;2024-01-11T02:14:14;19.73;;;10.00;;
66272;SDS011;58450;52.150;4.466;2024-01-11T02:16:41;17.70;;;8.75;;
66272;SDS011;58450;52.150;4.466;2024-01-11T02:19:08;20.58;;;9.68;;
66272;SDS011;58450;52.150;4.466;2024-01-11T02:21:40;21.95;;;10.43;;
66272;SDS011;58450;52.150;4.466;2024-01-11T02:24:09;23.40;;;10.48;;
66272;SDS011;58450;52.150;4.466;2024-01-11T02:26:36;22.48;;;9.93;;
66272;SDS011;58450;52.150;4.466;2024-01-11T02:29:02;20.65;;;9.65;;
66272;SDS011;58450;52.150;4.466;2024-01-11T02:31:29;21.27;;;9.85;;
66272;SDS011;58450;52.150;4.466;2024-01-11T02:33:57;22.17;;;10.38;;
66272;SDS011;58450;52.150;4.466;2024-01-11T02:36:23;21.88;;;9.77;;
66272;SDS011;58450;52.150;4.466;2024-01-11T02:38:51;24.27;;;10.43;;
66272;SDS011;58450;52.150;4.466;2024-01-11T02:41:19;21.92;;;9.85;;
66272;SDS011;58450;52.150;4.466;2024-01-11T02:43:47;23.52;;;11.13;;
66272;SDS011;58450;52.150;4.466;2024-01-11T02:46:14;25.08;;;10.50;;
66272;SDS011;58450;52.150;4.466;2024-01-11T02:48:41;22.23;;;10.43;;
66272;SDS011;58450;52.150;4.466;2024-01-11T02:51:07;24.02;;;10.07;;
66272;SDS011;58450;52.150;4.466;2024-01-11T02:53:34;22.80;;;10.75;;
66272;SDS011;58450;52.150;4.466;2024-01-11T02:56:01;23.88;;;11.10;;
66272;SDS011;58450;52.150;4.466;2024-01-11T02:58:29;23.55;;;10.57;;
66272;SDS011;58450;52.150;4.466;2024-01-11T03:00:56;23.83;;;10.48;;
66272;SDS011;58450;52.150;4.466;2024-01-11T03:03:22;23.05;;;11.15;;
66272;SDS011;58450;52.150;4.466;2024-01-11T03:05:49;23.67;;;11.85;;
66272;SDS011;58450;52.150;4.466;2024-01-11T03:08:16;25.08;;;10.95;;
66272;SDS011;58450;52.150;4.466;2024-01-11T03:10:43;23.33;;;11.23;;
66272;SDS011;58450;52.150;4.466;2024-01-11T03:13:09;22.48;;;11.48;;
66272;SDS011;58450;52.150;4.466;2024-01-11T03:15:37;22.35;;;10.88;;
66272;SDS011;58450;52.150;4.466;2024-01-11T03:18:04;22.05;;;10.80;;
66272;SDS011;58450;52.150;4.466;2024-01-11T03:20:31;24.33;;;11.07;;
66272;SDS011;58450;52.150;4.466;2024-01-11T03:22:58;24.45;;;11.13;;
66272;SDS011;58450;52.150;4.466;2024-01-11T03:25:24;27.02;;;12.13;;
66272;SDS011;58450;52.150;4.466;2024-01-11T03:27:51;24.48;;;12.02;;
66272;SDS011;58450;52.150;4.466;2024-01-11T03:30:18;27.75;;;12.23;;
66272;SDS011;58450;52.150;4.466;2024-01-11T03:32:46;26.25;;;12.02;;
66272;SDS011;58450;52.150;4.466;2024-01-11T03:35:13;27.83;;;13.40;;
66272;SDS011;58450;52.150;4.466;2024-01-11T03:37:39;26.50;;;12.32;;
66272;SDS011;58450;52.150;4.466;2024-01-11T03:40:06;26.75;;;13.50;;
66272;SDS011;58450;52.150;4.466;2024-01-11T03:42:33;28.58;;;13.48;;
66272;SDS011;58450;52.150;4.466;2024-01-11T03:45:00;26.90;;;13.55;;
66272;SDS011;58450;52.150;4.466;2024-01-11T03:47:27;27.42;;;13.20;;
66272;SDS011;58450;52.150;4.466;2024-01-11T03:49:55;28.42;;;14.05;;
66272;SDS011;58450;52.150;4.466;2024-01-11T03:52:22;31.02;;;14.48;;
66272;SDS011;58450;52.150;4.466;2024-01-11T03:54:48;29.70;;;13.88;;
66272;SDS011;58450;52.150;4.466;2024-01-11T03:57:15;28.23;;;13.30;;
66272;SDS011;58450;52.150;4.466;2024-01-11T03:59:42;27.52;;;12.52;;
66272;SDS011;58450;52.150;4.466;2024-01-11T04:02:10;28.48;;;13.88;;
66272;SDS011;58450;52.150;4.466;2024-01-11T04:04:37;29.08;;;13.77;;
66272;SDS011;58450;52.150;4.466;2024-01-11T04:07:05;29.95;;;13.52;;
66272;SDS011;58450;52.150;4.466;2024-01-11T04:09:32;29.63;;;14.27;;
66272;SDS011;58450;52.150;4.466;2024-01-11T04:11:58;28.25;;;13.35;;
66272;SDS011;58450;52.150;4.466;2024-01-11T04:14:25;30.30;;;13.57;;
66272;SDS011;58450;52.150;4.466;2024-01-11T04:16:52;28.98;;;13.05;;
66272;SDS011;58450;52.150;4.466;2024-01-11T04:19:19;29.80;;;13.98;;
66272;SDS011;58450;52.150;4.466;2024-01-11T04:21:46;30.27;;;13.45;;
66272;SDS011;58450;52.150;4.466;2024-01-11T04:24:14;29.80;;;14.18;;
66272;SDS011;58450;52.150;4.466;2024-01-11T04:26:41;32.95;;;15.85;;
66272;SDS011;58450;52.150;4.466;2024-01-11T04:29:08;33.42;;;15.20;;
66272;SDS011;58450;52.150;4.466;2024-01-11T04:31:34;30.40;;;15.30;;
66272;SDS011;58450;52.150;4.466;2024-01-11T04:34:01;31.98;;;15.50;;
66272;SDS011;58450;52.150;4.466;2024-01-11T04:36:28;30.20;;;15.13;;
66272;SDS011;58450;52.150;4.466;2024-01-11T04:38:55;37.13;;;15.73;;
66272;SDS011;58450;52.150;4.466;2024-01-11T04:41:23;33.83;;;15.10;;
66272;SDS011;58450;52.150;4.466;2024-01-11T04:43:49;32.00;;;15.32;;
66272;SDS011;58450;52.150;4.466;2024-01-11T04:46:16;33.92;;;16.77;;
66272;SDS011;58450;52.150;4.466;2024-01-11T04:48:44;42.13;;;18.40;;
66272;SDS011;58450;52.150;4.466;2024-01-11T04:51:12;39.25;;;18.42;;
66272;SDS011;58450;52.150;4.466;2024-01-11T04:53:39;39.65;;;17.77;;
66272;SDS011;58450;52.150;4.466;2024-01-11T04:56:06;39.50;;;18.42;;
66272;SDS011;58450;52.150;4.466;2024-01-11T04:58:34;43.25;;;19.02;;
66272;SDS011;58450;52.150;4.466;2024-01-11T05:01:02;41.30;;;18.48;;
66272;SDS011;58450;52.150;4.466;2024-01-11T05:03:29;39.58;;;18.35;;
66272;SDS011;58450;52.150;4.466;2024-01-11T05:05:57;38.72;;;17.67;;
66272;SDS011;58450;52.150;4.466;2024-01-11T05:08:24;40.05;;;18.92;;
66272;SDS011;58450;52.150;4.466;2024-01-11T05:10:51;38.67;;;18.05;;
66272;SDS011;58450;52.150;4.466;2024-01-11T05:13:18;37.90;;;17.95;;
66272;SDS011;58450;52.150;4.466;2024-01-11T05:15:46;39.72;;;18.08;;
66272;SDS011;58450;52.150;4.466;2024-01-11T05:18:13;39.33;;;18.27;;
66272;SDS011;58450;52.150;4.466;2024-01-11T05:20:39;39.03;;;18.20;;
66272;SDS011;58450;52.150;4.466;2024-01-11T05:23:06;40.90;;;18.73;;
66272;SDS011;58450;52.150;4.466;2024-01-11T05:25:34;38.22;;;18.63;;
66272;SDS011;58450;52.150;4.466;2024-01-11T05:28:01;42.92;;;19.45;;
66272;SDS011;58450;52.150;4.466;2024-01-11T05:30:28;40.65;;;18.38;;
66272;SDS011;58450;52.150;4.466;2024-01-11T05:32:56;39.70;;;18.50;;
66272;SDS011;58450;52.150;4.466;2024-01-11T05:35:23;38.00;;;18.23;;
66272;SDS011;58450;52.150;4.466;2024-01-11T05:37:52;39.60;;;18.13;;
66272;SDS011;58450;52.150;4.466;2024-01-11T05:40:20;42.72;;;18.42;;
66272;SDS011;58450;52.150;4.466;2024-01-11T05:42:47;41.95;;;18.27;;
66272;SDS011;58450;52.150;4.466;2024-01-11T05:45:14;41.75;;;18.20;;
66272;SDS011;58450;52.150;4.466;2024-01-11T05:47:42;40.80;;;19.23;;
66272;SDS011;58450;52.150;4.466;2024-01-11T05:50:10;40.83;;;19.35;;
66272;SDS011;58450;52.150;4.466;2024-01-11T05:52:37;44.67;;;19.88;;
66272;SDS011;58450;52.150;4.466;2024-01-11T05:55:04;43.20;;;19.73;;
66272;SDS011;58450;52.150;4.466;2024-01-11T05:57:31;44.42;;;19.95;;
66272;SDS011;58450;52.150;4.466;2024-01-11T05:59:58;42.58;;;19.83;;
66272;SDS011;58450;52.150;4.466;2024-01-11T06:02:25;44.75;;;20.02;;
66272;SDS011;58450;52.150;4.466;2024-01-11T06:04:51;41.78;;;16.95;;
66272;SDS011;58450;52.150;4.466;2024-01-11T06:07:19;44.75;;;18.55;;
66272;SDS011;58450;52.150;4.466;2024-01-11T06:09:46;39.58;;;18.25;;
66272;SDS011;58450;52.150;4.466;2024-01-11T06:12:13;46.20;;;20.02;;
66272;SDS011;58450;52.150;4.466;2024-01-11T06:14:40;44.00;;;20.55;;
66272;SDS011;58450;52.150;4.466;2024-01-11T06:17:06;44.03;;;19.88;;
66272;SDS011;58450;52.150;4.466;2024-01-11T06:19:36;46.35;;;20.48;;
66272;SDS011;58450;52.150;4.466;2024-01-11T06:22:03;42.13;;;19.77;;
66272;SDS011;58450;52.150;4.466;2024-01-11T06:24:31;41.63;;;19.35;;
66272;SDS011;58450;52.150;4.466;2024-01-11T06:26:58;41.92;;;19.67;;
66272;SDS011;58450;52.150;4.466;2024-01-11T06:29:25;39.53;;;19.10;;
66272;SDS011;58450;52.150;4.466;2024-01-11T06:31:51;44.58;;;20.27;;
66272;SDS011;58450;52.150;4.466;2024-01-11T06:34:18;43.85;;;19.63;;
66272;SDS011;58450;52.150;4.466;2024-01-11T06:36:45;43.50;;;19.98;;
66272;SDS011;58450;52.150;4.466;2024-01-11T06:39:12;45.08;;;19.52;;
66272;SDS011;58450;52.150;4.466;2024-01-11T06:41:40;42.15;;;19.13;;
66272;SDS011;58450;52.150;4.466;2024-01-11T06:44:07;44.72;;;20.35;;
66272;SDS011;58450;52.150;4.466;2024-01-11T06:46:33;43.47;;;19.95;;
66272;SDS011;58450;52.150;4.466;2024-01-11T06:49:01;43.53;;;19.65;;
66272;SDS011;58450;52.150;4.466;2024-01-11T06:51:28;46.25;;;21.10;;
66272;SDS011;58450;52.150;4.466;2024-01-11T06:53:55;49.80;;;22.17;;
66272;SDS011;58450;52.150;4.466;2024-01-11T06:56:22;52.08;;;23.25;;
66272;SDS011;58450;52.150;4.466;2024-01-11T06:58:50;50.13;;;22.05;;
66272;SDS011;58450;52.150;4.466;2024-01-11T07:01:17;48.10;;;21.88;;
66272;SDS011;58450;52.150;4.466;2024-01-11T07:03:44;51.70;;;22.08;;
66272;SDS011;58450;52.150;4.466;2024-01-11T07:06:11;46.90;;;20.95;;
66272;SDS011;58450;52.150;4.466;2024-01-11T07:08:38;48.83;;;22.42;;
66272;SDS011;58450;52.150;4.466;2024-01-11T07:11:05;49.03;;;21.98;;
66272;SDS011;58450;52.150;4.466;2024-01-11T07:13:33;53.80;;;23.30;;
66272;SDS011;58450;52.150;4.466;2024-01-11T07:16:01;50.42;;;22.67;;
66272;SDS011;58450;52.150;4.466;2024-01-11T07:18:28;47.58;;;22.63;;
66272;SDS011;58450;52.150;4.466;2024-01-11T07:20:55;50.30;;;23.52;;
66272;SDS011;58450;52.150;4.466;2024-01-11T07:23:22;54.40;;;24.25;;
66272;SDS011;58450;52.150;4.466;2024-01-11T07:25:49;49.30;;;22.77;;
66272;SDS011;58450;52.150;4.466;2024-01-11T07:28:16;53.00;;;22.73;;
66272;SDS011;58450;52.150;4.466;2024-01-11T07:30:45;48.70;;;21.77;;
66272;SDS011;58450;52.150;4.466;2024-01-11T07:33:13;47.97;;;22.35;;
66272;SDS011;58450;52.150;4.466;2024-01-11T07:35:40;47.10;;;21.23;;
66272;SDS011;58450;52.150;4.466;2024-01-11T07:38:07;51.35;;;22.63;;
66272;SDS011;58450;52.150;4.466;2024-01-11T07:40:33;46.40;;;21.70;;
66272;SDS011;58450;52.150;4.466;2024-01-11T07:43:00;52.58;;;23.15;;
66272;SDS011;58450;52.150;4.466;2024-01-11T07:45:29;50.03;;;22.73;;
66272;SDS011;58450;52.150;4.466;2024-01-11T07:47:56;52.22;;;23.30;;
66272;SDS011;58450;52.150;4.466;2024-01-11T07:50:24;53.33;;;24.02;;
66272;SDS011;58450;52.150;4.466;2024-01-11T07:52:51;51.60;;;22.58;;
66272;SDS011;58450;52.150;4.466;2024-01-11T07:55:18;47.47;;;22.17;;
66272;SDS011;58450;52.150;4.466;2024-01-11T07:57:49;50.97;;;22.92;;
66272;SDS011;58450;52.150;4.466;2024-01-11T08:00:16;53.75;;;23.10;;
66272;SDS011;58450;52.150;4.466;2024-01-11T08:02:43;48.22;;;22.88;;
66272;SDS011;58450;52.150;4.466;2024-01-11T08:05:10;49.67;;;22.38;;
66272;SDS011;58450;52.150;4.466;2024-01-11T08:07:38;51.25;;;22.77;;
66272;SDS011;58450;52.150;4.466;2024-01-11T08:10:05;52.65;;;23.38;;
66272;SDS011;58450;52.150;4.466;2024-01-11T08:12:32;50.35;;;22.25;;
66272;SDS011;58450;52.150;4.466;2024-01-11T08:14:59;50.15;;;22.27;;
66272;SDS011;58450;52.150;4.466;2024-01-11T08:17:26;48.28;;;22.63;;
66272;SDS011;58450;52.150;4.466;2024-01-11T08:19:53;51.75;;;23.38;;
66272;SDS011;58450;52.150;4.466;2024-01-11T08:22:21;51.45;;;23.58;;
66272;SDS011;58450;52.150;4.466;2024-01-11T08:24:49;51.42;;;23.85;;
66272;SDS011;58450;52.150;4.466;2024-01-11T08:27:16;50.50;;;22.73;;
66272;SDS011;58450;52.150;4.466;2024-01-11T08:29:43;51.65;;;24.00;;
66272;SDS011;58450;52.150;4.466;2024-01-11T08:32:12;50.80;;;23.50;;
66272;SDS011;58450;52.150;4.466;2024-01-11T08:34:39;49.97;;;23.63;;
66272;SDS011;58450;52.150;4.466;2024-01-11T08:37:05;54.05;;;24.73;;
66272;SDS011;58450;52.150;4.466;2024-01-11T08:39:32;50.97;;;24.35;;
66272;SDS011;58450;52.150;4.466;2024-01-11T08:42:01;52.10;;;24.27;;
66272;SDS011;58450;52.150;4.466;2024-01-11T08:44:29;52.28;;;25.00;;
66272;SDS011;58450;52.150;4.466;2024-01-11T08:46:56;49.53;;;22.83;;
66272;SDS011;58450;52.150;4.466;2024-01-11T08:49:24;49.25;;;23.70;;
66272;SDS011;58450;52.150;4.466;2024-01-11T08:51:51;51.95;;;24.85;;
66272;SDS011;58450;52.150;4.466;2024-01-11T08:54:18;51.22;;;24.25;;
66272;SDS011;58450;52.150;4.466;2024-01-11T08:56:46;47.35;;;23.30;;
66272;SDS011;58450;52.150;4.466;2024-01-11T08:59:14;49.13;;;23.83;;
66272;SDS011;58450;52.150;4.466;2024-01-11T09:01:41;49.58;;;24.10;;
66272;SDS011;58450;52.150;4.466;2024-01-11T09:04:08;48.42;;;23.10;;
66272;SDS011;58450;52.150;4.466;2024-01-11T09:06:35;49.50;;;23.08;;
66272;SDS011;58450;52.150;4.466;2024-01-11T09:09:01;46.75;;;23.25;;
66272;SDS011;58450;52.150;4.466;2024-01-11T09:11:28;47.50;;;23.70;;
66272;SDS011;58450;52.150;4.466;2024-01-11T09:13:55;46.47;;;22.48;;
66272;SDS011;58450;52.150;4.466;2024-01-11T09:16:24;50.30;;;23.85;;
66272;SDS011;58450;52.150;4.466;2024-01-11T09:18:51;49.88;;;24.80;;
66272;SDS011;58450;52.150;4.466;2024-01-11T09:21:18;50.15;;;24.90;;
66272;SDS011;58450;52.150;4.466;2024-01-11T09:23:45;51.42;;;24.98;;
66272;SDS011;58450;52.150;4.466;2024-01-11T09:26:12;47.75;;;24.20;;
66272;SDS011;58450;52.150;4.466;2024-01-11T09:28:39;47.60;;;23.02;;
66272;SDS011;58450;52.150;4.466;2024-01-11T09:31:06;50.17;;;23.92;;
66272;SDS011;58450;52.150;4.466;2024-01-11T09:33:34;47.00;;;22.90;;
66272;SDS011;58450;52.150;4.466;2024-01-11T09:36:01;46.00;;;23.10;;
66272;SDS011;58450;52.150;4.466;2024-01-11T09:38:28;49.30;;;23.70;;
66272;SDS011;58450;52.150;4.466;2024-01-11T09:40:58;46.50;;;22.38;;
66272;SDS011;58450;52.150;4.466;2024-01-11T09:43:27;49.85;;;24.17;;
66272;SDS011;58450;52.150;4.466;2024-01-11T09:45:53;48.25;;;22.83;;
66272;SDS011;58450;52.150;4.466;2024-01-11T09:48:21;43.50;;;21.85;;
66272;SDS011;58450;52.150;4.466;2024-01-11T09:50:50;47.47;;;22.13;;
66272;SDS011;58450;52.150;4.466;2024-01-11T09:53:17;42.20;;;19.98;;
66272;SDS011;58450;52.150;4.466;2024-01-11T09:55:46;38.97;;;19.20;;
66272;SDS011;58450;52.150;4.466;2024-01-11T09:58:13;38.00;;;18.88;;
66272;SDS011;58450;52.150;4.466;2024-01-11T10:00:41;37.03;;;18.85;;
66272;SDS011;58450;52.150;4.466;2024-01-11T10:03:09;36.78;;;19.15;;
66272;SDS011;58450;52.150;4.466;2024-01-11T10:05:36;35.33;;;18.77;;
66272;SDS011;58450;52.150;4.466;2024-01-11T10:08:05;36.78;;;19.27;;
66272;SDS011;58450;52.150;4.466;2024-01-11T10:10:31;36.97;;;18.55;;
66272;SDS011;58450;52.150;4.466;2024-01-11T10:12:58;36.33;;;18.58;;
66272;SDS011;58450;52.150;4.466;2024-01-11T10:15:25;35.67;;;17.77;;
66272;SDS011;58450;52.150;4.466;2024-01-11T10:17:52;35.78;;;17.55;;
66272;SDS011;58450;52.150;4.466;2024-01-11T10:20:19;31.90;;;16.65;;
66272;SDS011;58450;52.150;4.466;2024-01-11T10:22:49;32.10;;;16.63;;
66272;SDS011;58450;52.150;4.466;2024-01-11T10:25:19;30.20;;;16.20;;
66272;SDS011;58450;52.150;4.466;2024-01-11T10:27:46;33.00;;;16.40;;
66272;SDS011;58450;52.150;4.466;2024-01-11T10:30:13;33.20;;;16.63;;
66272;SDS011;58450;52.150;4.466;2024-01-11T10:32:41;32.47;;;16.05;;
66272;SDS011;58450;52.150;4.466;2024-01-11T10:35:08;29.95;;;15.57;;
66272;SDS011;58450;52.150;4.466;2024-01-11T10:37:36;29.58;;;15.45;;
66272;SDS011;58450;52.150;4.466;2024-01-11T10:40:05;27.15;;;14.98;;
66272;SDS011;58450;52.150;4.466;2024-01-11T10:42:39;28.25;;;15.25;;
66272;SDS011;58450;52.150;4.466;2024-01-11T10:45:09;25.65;;;14.13;;
66272;SDS011;58450;52.150;4.466;2024-01-11T10:47:37;29.92;;;14.02;;
66272;SDS011;58450;52.150;4.466;2024-01-11T10:50:04;30.20;;;15.02;;
66272;SDS011;58450;52.150;4.466;2024-01-11T10:52:36;27.60;;;14.35;;
66272;SDS011;58450;52.150;4.466;2024-01-11T10:55:10;26.48;;;13.30;;
66272;SDS011;58450;52.150;4.466;2024-01-11T10:57:36;26.52;;;12.63;;
66272;SDS011;58450;52.150;4.466;2024-01-11T11:00:06;24.05;;;13.60;;
66272;SDS011;58450;52.150;4.466;2024-01-11T11:02:37;24.52;;;12.80;;
66272;SDS011;58450;52.150;4.466;2024-01-11T11:05:04;24.10;;;13.13;;
66272;SDS011;58450;52.150;4.466;2024-01-11T11:07:31;25.75;;;13.68;;
66272;SDS011;58450;52.150;4.466;2024-01-11T11:10:00;24.00;;;12.43;;
66272;SDS011;58450;52.150;4.466;2024-01-11T11:12:30;22.92;;;12.70;;
66272;SDS011;58450;52.150;4.466;2024-01-11T11:14:57;20.88;;;11.85;;
66272;SDS011;58450;52.150;4.466;2024-01-11T11:17:26;19.52;;;11.15;;
66272;SDS011;58450;52.150;4.466;2024-01-11T11:19:54;24.33;;;11.75;;
66272;SDS011;58450;52.150;4.466;2024-01-11T11:22:22;19.63;;;10.90;;
66272;SDS011;58450;52.150;4.466;2024-01-11T11:24:49;20.50;;;10.85;;
66272;SDS011;58450;52.150;4.466;2024-01-11T11:27:29;21.35;;;10.85;;
66272;SDS011;58450;52.150;4.466;2024-01-11T11:29:56;21.40;;;10.43;;
66272;SDS011;58450;52.150;4.466;2024-01-11T11:32:35;18.67;;;10.18;;
66272;SDS011;58450;52.150;4.466;2024-01-11T11:35:03;19.40;;;10.45;;
66272;SDS011;58450;52.150;4.466;2024-01-11T11:37:29;21.33;;;10.45;;
66272;SDS011;58450;52.150;4.466;2024-01-11T11:39:57;20.08;;;9.95;;
66272;SDS011;58450;52.150;4.466;2024-01-11T11:42:24;20.30;;;10.45;;
66272;SDS011;58450;52.150;4.466;2024-01-11T11:44:52;21.73;;;10.75;;
66272;SDS011;58450;52.150;4.466;2024-01-11T11:47:19;19.02;;;9.88;;
66272;SDS011;58450;52.150;4.466;2024-01-11T11:49:56;18.92;;;9.82;;
66272;SDS011;58450;52.150;4.466;2024-01-11T11:52:24;19.92;;;10.73;;
66272;SDS011;58450;52.150;4.466;2024-01-11T11:54:51;18.42;;;9.82;;
66272;SDS011;58450;52.150;4.466;2024-01-11T11:57:18;17.55;;;9.27;;
66272;SDS011;58450;52.150;4.466;2024-01-11T11:59:45;20.33;;;10.68;;
66272;SDS011;58450;52.150;4.466;2024-01-11T12:02:14;19.35;;;10.00;;
66272;SDS011;58450;52.150;4.466;2024-01-11T12:04:46;19.00;;;10.68;;
66272;SDS011;58450;52.150;4.466;2024-01-11T12:07:14;18.80;;;10.35;;
66272;SDS011;58450;52.150;4.466;2024-01-11T12:09:41;16.40;;;10.13;;
66272;SDS011;58450;52.150;4.466;2024-01-11T12:12:08;16.83;;;9.45;;
66272;SDS011;58450;52.150;4.466;2024-01-11T12:14:35;19.27;;;10.05;;
66272;SDS011;58450;52.150;4.466;2024-01-11T12:17:03;16.52;;;9.07;;
66272;SDS011;58450;52.150;4.466;2024-01-11T12:19:30;16.65;;;9.88;;
66272;SDS011;58450;52.150;4.466;2024-01-11T12:21:57;18.45;;;10.05;;
66272;SDS011;58450;52.150;4.466;2024-01-11T12:24:26;17.27;;;10.07;;
66272;SDS011;58450;52.150;4.466;2024-01-11T12:26:52;18.92;;;9.93;;
66272;SDS011;58450;52.150;4.466;2024-01-11T12:29:20;16.95;;;9.55;;
66272;SDS011;58450;52.150;4.466;2024-01-11T12:31:46;19.05;;;10.10;;
66272;SDS011;58450;52.150;4.466;2024-01-11T12:34:13;19.23;;;10.77;;
66272;SDS011;58450;52.150;4.466;2024-01-11T12:36:40;17.88;;;10.20;;
66272;SDS011;58450;52.150;4.466;2024-01-11T12:39:07;17.17;;;9.93;;
66272;SDS011;58450;52.150;4.466;2024-01-11T12:41:36;19.02;;;10.63;;
66272;SDS011;58450;52.150;4.466;2024-01-11T12:44:03;20.30;;;11.32;;
66272;SDS011;58450;52.150;4.466;2024-01-11T12:46:30;18.10;;;11.00;;
66272;SDS011;58450;52.150;4.466;2024-01-11T12:48:57;15.60;;;8.90;;
66272;SDS011;58450;52.150;4.466;2024-01-11T12:51:23;17.38;;;9.88;;
66272;SDS011;58450;52.150;4.466;2024-01-11T12:53:52;17.48;;;9.93;;
66272;SDS011;58450;52.150;4.466;2024-01-11T12:56:20;17.42;;;10.05;;
66272;SDS011;58450;52.150;4.466;2024-01-11T12:58:49;18.73;;;10.23;;
66272;SDS011;58450;52.150;4.466;2024-01-11T13:01:15;19.08;;;10.30;;
66272;SDS011;58450;52.150;4.466;2024-01-11T13:03:44;18.45;;;9.90;;
66272;SDS011;58450;52.150;4.466;2024-01-11T13:06:11;20.73;;;10.43;;
66272;SDS011;58450;52.150;4.466;2024-01-11T13:08:39;17.58;;;10.20;;
66272;SDS011;58450;52.150;4.466;2024-01-11T13:11:07;21.52;;;10.93;;
66272;SDS011;58450;52.150;4.466;2024-01-11T13:13:34;21.40;;;11.13;;
66272;SDS011;58450;52.150;4.466;2024-01-11T13:16:03;17.92;;;10.00;;
66272;SDS011;58450;52.150;4.466;2024-01-11T13:18:31;18.25;;;10.07;;
66272;SDS011;58450;52.150;4.466;2024-01-11T13:20:58;17.77;;;9.73;;
66272;SDS011;58450;52.150;4.466;2024-01-11T13:23:25;17.75;;;10.15;;
66272;SDS011;58450;52.150;4.466;2024-01-11T13:25:51;17.55;;;9.70;;
66272;SDS011;58450;52.150;4.466;2024-01-11T13:28:18;17.55;;;9.93;;
66272;SDS011;58450;52.150;4.466;2024-01-11T13:30:45;21.42;;;10.50;;
66272;SDS011;58450;52.150;4.466;2024-01-11T13:33:15;19.13;;;10.93;;
66272;SDS011;58450;52.150;4.466;2024-01-11T13:35:43;20.95;;;10.60;;
66272;SDS011;58450;52.150;4.466;2024-01-11T13:38:10;19.23;;;10.20;;
66272;SDS011;58450;52.150;4.466;2024-01-11T13:40:37;19.45;;;10.02;;
66272;SDS011;58450;52.150;4.466;2024-01-11T13:43:05;19.10;;;10.68;;
66272;SDS011;58450;52.150;4.466;2024-01-11T13:45:32;18.67;;;10.23;;
66272;SDS011;58450;52.150;4.466;2024-01-11T13:48:01;17.52;;;10.98;;
66272;SDS011;58450;52.150;4.466;2024-01-11T13:50:30;17.70;;;9.98;;
66272;SDS011;58450;52.150;4.466;2024-01-11T13:52:56;19.17;;;10.77;;
66272;SDS011;58450;52.150;4.466;2024-01-11T13:55:23;20.90;;;12.10;;
66272;SDS011;58450;52.150;4.466;2024-01-11T13:57:50;19.83;;;11.38;;
66272;SDS011;58450;52.150;4.466;2024-01-11T14:00:18;18.75;;;11.85;;
66272;SDS011;58450;52.150;4.466;2024-01-11T14:02:45;19.20;;;11.00;;
66272;SDS011;58450;52.150;4.466;2024-01-11T14:05:12;18.77;;;10.90;;
66272;SDS011;58450;52.150;4.466;2024-01-11T14:07:42;21.88;;;11.55;;
66272;SDS011;58450;52.150;4.466;2024-01-11T14:10:10;20.92;;;12.25;;
66272;SDS011;58450;52.150;4.466;2024-01-11T14:12:38;19.33;;;11.27;;
66272;SDS011;58450;52.150;4.466;2024-01-11T14:15:05;19.15;;;10.82;;
66272;SDS011;58450;52.150;4.466;2024-01-11T14:17:33;19.65;;;10.65;;
66272;SDS011;58450;52.150;4.466;2024-01-11T14:20:00;22.35;;;12.55;;
66272;SDS011;58450;52.150;4.466;2024-01-11T14:22:28;22.83;;;12.50;;
66272;SDS011;58450;52.150;4.466;2024-01-11T14:24:56;22.05;;;12.38;;